Terminal Aerodrome Forecast
Issued by NWS

Home | Current Version | Previous Version | Text Only | Print | Product List | Glossary On
Versions: 1 2 3 4 5 6 7 8 9 10 11 12 13 14 15 16 17 18 19 20 21 22 23 24 25 26 27 28 29 30 31 32 33 34 35 36 37 38 39 40 41 42 43 44 45 46
000
FTUS45 KBOU 231132
TAFAPA
TAF
KAPA 231132Z 2312/2412 02012KT P6SM VCSH SCT020 BKN050 OVC080
     FM231500 35012G20KT P6SM SCT050 SCT070 BKN100
     FM231800 34020G32KT P6SM VCSH SCT060 BKN100
     FM240100 30013KT P6SM SCT090 BKN120
     FM240600 27010KT P6SM SCT100 BKN150
     FM240900 25011KT P6SM SCT100 BKN150=

USA.gov is the U.S. government's official web portal to all federal, state and local government web resources and services.